ADDS METAR Data INFO
IDs: Format: Raw Decoded Include TAF

Data at: 0931 UTC 11 Dec 2017

KANK 110915Z AUTO 32011G16KT 10SM CLR M01/M20 A3057 RMK AO1 T10151203
KANK 110855Z AUTO 33007KT 10SM CLR M03/M20 A3056 RMK AO1 T10301202
KANK 110835Z AUTO 00000KT 10SM CLR M04/M20 A3056 RMK AO1 T10421201
KANK 110815Z AUTO 31005KT 10SM CLR M04/M20 A3056 RMK AO1 T10411198
KANK 110755Z AUTO 24006KT 10SM CLR M04/M20 A3057 RMK AO1 T10421196
KANK 110735Z AUTO 00000KT 10SM CLR M03/M20 A3058 RMK AO1 T10351200
KANK 110715Z AUTO 26004KT 10SM CLR M03/M20 A3057 RMK AO1 T10271198
KANK 110655Z AUTO 26010KT 10SM CLR M02/M20 A3059 RMK AO1 T10251197
KANK 110635Z AUTO 24005KT 10SM CLR M02/M20 A3060 RMK AO1 T10191205
KANK 110615Z AUTO 00000KT 10SM CLR M03/M21 A3059 RMK AO1 T10271206
KANK 110555Z AUTO 00000KT 10SM CLR M03/M20 A3058 RMK AO1 T10331201 10075 21034 401251083
KANK 110535Z AUTO 25009KT 10SM CLR M02/M20 A3057 RMK AO1 T10231200
KANK 110515Z AUTO 25007KT 10SM CLR 00/M21 A3057 RMK AO1 T10051209
KANK 110455Z AUTO 26006KT 10SM CLR 00/M21 A3057 RMK AO1 T10021210
KANK 110435Z AUTO 26007KT 10SM CLR 01/M22 A3057 RMK AO1 T00051217
KANK 110415Z AUTO 28004KT 10SM CLR M02/M20 A3056 RMK AO1 T10201204
KANK 110355Z AUTO 25005KT 10SM CLR 00/M22 A3055 RMK AO1 T00041217
KANK 110335Z AUTO 29003KT 10SM CLR M01/M21 A3055 RMK AO1 T10061211
KANK 110315Z AUTO 28006KT 10SM CLR M01/M21 A3055 RMK AO1 T10071211
KANK 110255Z AUTO 25009KT 10SM CLR 01/M22 A3055 RMK AO1 T00111218
KANK 110235Z AUTO 27008KT 10SM CLR 02/M22 A3055 RMK AO1 T00201219
KANK 110215Z AUTO 27008KT 10SM CLR 01/M21 A3055 RMK AO1 T00131211
KANK 110155Z AUTO 33007KT 10SM CLR 03/M22 A3055 RMK AO1 T00271216
KANK 110135Z AUTO 25010KT 10SM CLR 04/M22 A3054 RMK AO1 T00411221
KANK 110115Z AUTO 28007KT 10SM CLR 04/M22 A3054 RMK AO1 T00441221
KANK 110055Z AUTO 26010KT 10SM CLR 05/M22 A3052 RMK AO1 T00521219
KANK 110035Z AUTO 24012G17KT 10SM CLR 06/M23 A3052 RMK AO1 T00611226
KANK 110015Z AUTO 24010KT 10SM CLR 07/M23 A3051 RMK AO1 T00711231
KANK 102355Z AUTO 24009G15KT 10SM CLR 08/M23 A3051 RMK AO1 T00771229 10125 20047
KANK 102335Z AUTO 24010G16KT 10SM CLR 09/M23 A3050 RMK AO1 T00851232
KANK 102315Z AUTO 23007KT 10SM CLR 10/M24 A3050 RMK AO1 T00971241
KANK 102255Z AUTO 27006KT 10SM CLR 11/M25 A3050 RMK AO1 T01121250
KANK 102235Z AUTO 25006KT 10SM CLR 12/M25 A3049 RMK AO1 T01171247
KANK 102215Z AUTO 00000KT 10SM CLR 12/M24 A3049 RMK AO1 T01201245
KANK 102155Z AUTO 33003KT 10SM CLR 12/M24 A3049 RMK AO1 T01231240
KANK 102135Z AUTO 31005KT 10SM CLR 12/M23 A3049 RMK AO1 T01211228
KANK 102115Z AUTO 34003KT 10SM CLR 12/M22 A3049 RMK AO1 T01181225
KANK 102055Z AUTO 00000KT 10SM CLR 12/M22 A3050 RMK AO1 T01201224
KANK 102035Z AUTO 26004KT 10SM CLR 12/M23 A3051 RMK AO1 T01211230
KANK 102015Z AUTO 25003KT 10SM CLR 11/M22 A3051 RMK AO1 T01131225
KANK 101955Z AUTO 34004KT 10SM CLR 11/M21 A3052 RMK AO1 T01101210
KANK 101935Z AUTO 00000KT 10SM CLR 10/M20 A3054 RMK AO1 T00971198
KANK 101915Z AUTO 00000KT 10SM CLR 08/M20 A3055 RMK AO1 T00841200
KANK 101855Z AUTO 00000KT 10SM CLR 08/M20 A3056 RMK AO1 T00781200
KANK 101835Z AUTO 01003KT 10SM CLR 07/M20 A3057 RMK AO1 T00671205
KANK 101815Z AUTO 35005KT 10SM CLR 06/M21 A3058 RMK AO1 T00561207
KANK 101755Z AUTO 32003KT 10SM CLR 04/M19 A3060 RMK AO1 T00431193 10043 21083
KANK 101735Z AUTO 00000KT 10SM CLR 03/M18 A3061 RMK AO1 T00251178
KANK 101715Z AUTO 32003KT 10SM CLR 02/M19 A3061 RMK AO1 T00231186
KANK 101655Z AUTO 30007KT 10SM CLR 01/M19 A3062 RMK AO1 T00111190
KANK 101635Z AUTO 30004KT 10SM CLR 00/M19 A3062 RMK AO1 T00001190
KANK 101615Z AUTO 33005KT 10SM CLR M02/M18 A3062 RMK AO1 T10191185
KANK 101555Z AUTO 32003KT 10SM CLR M03/M19 A3062 RMK AO1 T10301187
KANK 101535Z AUTO 00000KT 10SM CLR M03/M19 A3062 RMK AO1 T10321192
KANK 101515Z AUTO 27004KT 10SM CLR M03/M19 A3062 RMK AO1 T10291187
KANK 101455Z AUTO 25005KT 10SM CLR M05/M19 A3062 RMK AO1 T10471193
KANK 101435Z AUTO 28003KT 10SM CLR M06/M19 A3062 RMK AO1 T10571191
KANK 101415Z AUTO 00000KT 10SM CLR M07/M19 A3062 RMK AO1 T10691187
KANK 101355Z AUTO 28003KT 10SM CLR M05/M19 A3062 RMK AO1 T10461193
KANK 101335Z AUTO 33007KT 10SM CLR M04/M19 A3062 RMK AO1 T10371190
KANK 101315Z AUTO 30008KT 10SM CLR M04/M19 A3062 RMK AO1 T10451190
KANK 101255Z AUTO 32009KT 10SM CLR M04/M19 A3061 RMK AO1 T10411187
KANK 101235Z AUTO 27006KT 10SM CLR M04/M19 A3061 RMK AO1 T10441187
KANK 101215Z AUTO 28003KT 10SM CLR M04/M19 A3061 RMK AO1 T10401188
KANK 101155Z AUTO 31006KT 10SM CLR M04/M19 A3060 RMK AO1 T10451189 11021 21061
KANK 101135Z AUTO 32004KT 10SM CLR M03/M19 A3061 RMK AO1 T10351187
KANK 101115Z AUTO 29006KT 10SM CLR M06/M18 A3061 RMK AO1 T10571181
KANK 101055Z AUTO 27003KT 10SM CLR M04/M18 A3061 RMK AO1 T10391184
KANK 101035Z AUTO 28005KT 10SM CLR M05/M18 A3061 RMK AO1 T10541178
KANK 101015Z AUTO 26005KT 10SM CLR M05/M18 A3061 RMK AO1 T10551179
KANK 100955Z AUTO 00000KT 10SM CLR M04/M18 A3061 RMK AO1 T10451183
KANK 100935Z AUTO 30005KT 10SM CLR M04/M19 A3061 RMK AO1 T10411187
KANK 100915Z AUTO 00000KT 10SM CLR M05/M19 A3061 RMK AO1 T10521189
KANK 100855Z AUTO 28005KT 10SM CLR M06/M19 A3061 RMK AO1 T10581186
KANK 100835Z AUTO 27004KT 10SM CLR M04/M19 A3060 RMK AO1 T10451186
KANK 100815Z AUTO 27006KT 10SM CLR M03/M19 A3060 RMK AO1 T10351189
KANK 100755Z AUTO 24007KT 10SM CLR M03/M19 A3061 RMK AO1 T10311192
KANK 100735Z AUTO 27008KT 10SM CLR M04/M19 A3061 RMK AO1 T10371189
KANK 100715Z AUTO 25008KT 10SM CLR M03/M19 A3060 RMK AO1 T10271190
KANK 100655Z AUTO 27006KT 10SM CLR M03/M19 A3060 RMK AO1 T10311187
KANK 100635Z AUTO 25009KT 10SM CLR M03/M18 A3061 RMK AO1 T10351185
KANK 100615Z AUTO 25008KT 10SM CLR M04/M18 A3061 RMK AO1 T10381176
KANK 100555Z AUTO 26005KT 10SM CLR M03/M19 A3060 RMK AO1 T10261191 10063 21044 401201090
KANK 100535Z AUTO 25006KT 10SM CLR M03/M19 A3060 RMK AO1 T10261190
KANK 100515Z AUTO 26004KT 10SM CLR M04/M19 A3059 RMK AO1 T10421186
KANK 100455Z AUTO 27005KT 10SM CLR M03/M19 A3058 RMK AO1 T10321190
KANK 100435Z AUTO 28006KT 10SM CLR M02/M19 A3058 RMK AO1 T10181194
KANK 100415Z AUTO 27007KT 10SM CLR M01/M19 A3058 RMK AO1 T10091194
KANK 100355Z AUTO 27007KT 10SM CLR M01/M19 A3058 RMK AO1 T10151190
KANK 100335Z AUTO 26009KT 10SM CLR 00/M20 A3057 RMK AO1 T10021197
KANK 100315Z AUTO 27006KT 10SM CLR 00/M20 A3057 RMK AO1 T10021196
KANK 100255Z AUTO 24007KT 10SM CLR 01/M20 A3057 RMK AO1 T00071202
KANK 100235Z AUTO 26003KT 10SM CLR 02/M20 A3056 RMK AO1 T00151199
KANK 100215Z AUTO 00000KT 10SM CLR 03/M20 A3055 RMK AO1 T00281205
KANK 100155Z AUTO 29005KT 10SM CLR 03/M20 A3055 RMK AO1 T00301204
KANK 100135Z AUTO 32005KT 10SM CLR 05/M21 A3054 RMK AO1 T00451206
KANK 100115Z AUTO 29009KT 10SM CLR 05/M20 A3053 RMK AO1 T00541204
KANK 100055Z AUTO 30007KT 10SM CLR 04/M19 A3052 RMK AO1 T00381195
KANK 100035Z AUTO 28007G14KT 10SM CLR 05/M20 A3051 RMK AO1 T00461196
KANK 100015Z AUTO 26009KT 10SM CLR 05/M20 A3050 RMK AO1 T00511198
KANK 092355Z AUTO 27011KT 10SM CLR 06/M20 A3049 RMK AO1 T00631204 10120 20051
KANK 092335Z AUTO 26010KT 10SM CLR 07/M20 A3049 RMK AO1 T00741204
KANK 092315Z AUTO 26011G15KT 10SM CLR 09/M21 A3048 RMK AO1 T00871210
KANK 092255Z AUTO 28008KT 10SM CLR 10/M21 A3047 RMK AO1 T01001214
KANK 092235Z AUTO 26010KT 10SM CLR 11/M21 A3047 RMK AO1 T01101214
KANK 092215Z AUTO 25010G15KT 10SM CLR 12/M21 A3047 RMK AO1 T01151212
KANK 092155Z AUTO 24011G15KT 10SM CLR 12/M22 A3047 RMK AO1 T01151220
KANK 092135Z AUTO 24010G15KT 10SM CLR 12/M21 A3046 RMK AO1 T01201214